Time;durP1;ratioP1;P1;durP2;ratioP2;P2;SDS_P1;SDS_P2;PMS_P1;PMS_P2;Temp;Humidity;BMP_temperature;BMP_pressure;BME280_temperature;BME280_humidity;BME280_pressure;Samples;Min_cycle;Max_cycle;Signal;HPM_P1;HPM_P2
2023/04/05 00:01:42;;;;;;;3.55;2.05;;;20.20;58.80;;;;;;4981571;28;87529;-85
2023/04/05 00:04:07;;;;;;;3.50;2.05;;;20.20;58.80;;;;;;4982876;28;88689;-85
2023/04/05 00:06:33;;;;;;;3.03;1.77;;;20.20;58.90;;;;;;4974209;28;88261;-85
2023/04/05 00:09:00;;;;;;;2.65;1.90;;;20.20;58.90;;;;;;4983102;28;87360;-85
2023/04/05 00:11:31;;;;;;;2.42;1.85;;;20.20;58.70;;;;;;4972980;28;88886;-85
2023/04/05 00:14:01;;;;;;;2.63;1.70;;;20.20;58.80;;;;;;4981441;28;88416;-85
2023/04/05 00:16:28;;;;;;;3.08;1.90;;;20.20;58.80;;;;;;4984141;28;88517;-86
2023/04/05 00:18:56;;;;;;;2.72;1.85;;;20.10;58.80;;;;;;4965359;28;87513;-85
2023/04/05 00:21:25;;;;;;;3.08;1.83;;;20.10;58.70;;;;;;4972562;28;90799;-86
2023/04/05 00:23:57;;;;;;;;;;;20.10;58.70;;;;;;4983688;28;87795;-86
2023/04/05 00:26:23;;;;;;;4.57;2.20;;;20.10;58.80;;;;;;4983837;28;87006;-85
2023/04/05 00:28:49;;;;;;;2.47;1.77;;;20.10;58.60;;;;;;4965815;28;87502;-85
2023/04/05 00:31:15;;;;;;;4.05;2.00;;;20.10;58.60;;;;;;4960638;28;90686;-85
2023/04/05 00:33:41;;;;;;;2.60;1.50;;;20.10;58.60;;;;;;4981792;28;87672;-85
2023/04/05 00:36:13;;;;;;;2.65;1.75;;;20.10;58.80;;;;;;4982465;28;87414;-85
2023/04/05 00:38:40;;;;;;;2.88;2.00;;;20.10;58.60;;;;;;4982363;28;88453;-85
2023/04/05 00:41:07;;;;;;;2.35;1.60;;;20.10;58.40;;;;;;4980876;28;89859;-85
2023/04/05 00:43:32;;;;;;;2.75;1.95;;;20.10;58.70;;;;;;4983240;28;88643;-85
2023/04/05 00:45:59;;;;;;;3.03;1.52;;;20.10;59.00;;;;;;4981341;28;87985;-85
2023/04/05 00:48:25;;;;;;;3.25;1.92;;;20.10;59.10;;;;;;4982002;28;87186;-86
2023/04/05 00:50:51;;;;;;;2.45;1.80;;;20.00;59.00;;;;;;4981741;28;87161;-85
2023/04/05 00:53:20;;;;;;;2.80;1.80;;;20.10;59.00;;;;;;4982631;28;87639;-86
2023/04/05 00:55:47;;;;;;;2.38;1.63;;;20.10;59.00;;;;;;4983554;28;88399;-85
2023/04/05 01:01:40;;;;;;;3.45;2.10;;;20.00;59.00;;;;;;4943409;28;89247;-85
2023/04/05 01:04:07;;;;;;;2.75;1.70;;;20.00;59.00;;;;;;4933012;28;88506;-85
2023/04/05 01:06:57;;;;;;;3.28;1.85;;;20.00;58.90;;;;;;4932021;28;88710;-85
2023/04/05 01:09:47;;;;;;;2.65;1.75;;;20.00;58.90;;;;;;4945896;28;86948;-85
2023/04/05 01:12:16;;;;;;;2.90;2.00;;;20.00;58.90;;;;;;4947198;28;87442;-85
2023/04/05 01:14:50;;;;;;;2.80;1.70;;;20.00;58.80;;;;;;4943236;28;88335;-85
2023/04/05 01:17:23;;;;;;;1.70;1.20;;;19.90;59.00;;;;;;4941001;28;91179;-85
2023/04/05 01:19:57;;;;;;;2.60;1.70;;;19.90;58.80;;;;;;4941441;28;87557;-85
2023/04/05 01:22:58;;;;;;;2.63;1.80;;;19.90;58.70;;;;;;4943119;28;92067;-86
2023/04/05 01:25:51;;;;;;;2.03;1.50;;;19.90;58.60;;;;;;4891863;28;93021;-85
2023/04/05 01:29:02;;;;;;;3.17;1.80;;;19.90;58.60;;;;;;4901369;28;91906;-85
2023/04/05 01:31:49;;;;;;;2.00;1.60;;;19.90;58.50;;;;;;4863451;29;87952;-85
2023/04/05 01:34:44;;;;;;;2.97;1.80;;;19.90;58.40;;;;;;4862384;29;87975;-85
2023/04/05 01:37:13;;;;;;;2.47;1.85;;;19.90;58.50;;;;;;4862604;29;91973;-85
2023/04/05 01:39:39;;;;;;;2.65;1.70;;;19.90;58.50;;;;;;4862972;29;88412;-85
2023/04/05 01:42:05;;;;;;;3.13;1.40;;;19.90;58.40;;;;;;4863541;29;87357;-85
2023/04/05 01:44:31;;;;;;;2.40;1.40;;;19.90;58.40;;;;;;4862643;29;87221;-85
2023/04/05 01:46:56;;;;;;;2.22;1.70;;;19.80;58.50;;;;;;4863497;28;88494;-85
2023/04/05 01:49:23;;;;;;;2.00;1.63;;;19.80;58.50;;;;;;4864508;29;88951;-85
2023/04/05 01:51:55;;;;;;;2.60;1.67;;;19.80;58.60;;;;;;4863403;29;87345;-86
2023/04/05 01:54:20;;;;;;;2.35;1.60;;;19.80;58.60;;;;;;4877705;28;88686;-86
2023/04/05 01:56:46;;;;;;;2.20;1.60;;;19.80;58.70;;;;;;4868911;28;88424;-86
2023/04/05 01:59:11;;;;;;;2.47;1.60;;;19.70;58.50;;;;;;4872729;28;91696;-85
2023/04/05 02:01:37;;;;;;;2.28;1.70;;;19.70;58.60;;;;;;4888575;28;87021;-85
2023/04/05 02:04:04;;;;;;;2.53;1.67;;;19.70;58.50;;;;;;4898934;28;88936;-86
2023/04/05 02:06:31;;;;;;;2.67;1.73;;;19.70;58.70;;;;;;4970853;28;91191;-86
2023/04/05 02:08:56;;;;;;;3.42;1.85;;;19.70;58.60;;;;;;4940763;28;90145;-85
2023/04/05 02:11:22;;;;;;;3.20;1.63;;;19.70;58.60;;;;;;4941633;28;87015;-85
2023/04/05 02:13:48;;;;;;;2.60;1.73;;;19.70;58.60;;;;;;4942862;28;87448;-85
2023/04/05 02:16:32;;;;;;;2.90;1.67;;;19.70;58.50;;;;;;4942423;28;87766;-85
2023/04/05 02:18:58;;;;;;;2.60;1.70;;;19.70;58.50;;;;;;4941871;28;89056;-85
2023/04/05 02:21:25;;;;;;;2.15;1.33;;;19.70;58.50;;;;;;4941144;28;88548;-85
2023/04/05 02:23:52;;;;;;;1.63;1.42;;;19.70;58.40;;;;;;4941465;28;87439;-85
2023/04/05 02:26:24;;;;;;;2.40;1.58;;;19.60;58.70;;;;;;4942037;28;88510;-86
2023/04/05 02:28:50;;;;;;;2.10;1.70;;;19.60;58.60;;;;;;4957355;28;89880;-85
2023/04/05 02:31:16;;;;;;;2.22;1.50;;;19.60;58.60;;;;;;4942314;28;87016;-85
2023/04/05 02:33:41;;;;;;;3.40;1.70;;;19.60;58.60;;;;;;4941674;28;87196;-85
2023/04/05 02:36:10;;;;;;;2.17;1.50;;;19.60;58.50;;;;;;4941322;28;89107;-85
2023/04/05 02:38:38;;;;;;;1.40;1.30;;;19.60;58.60;;;;;;4941662;28;88975;-85
2023/04/05 02:41:08;;;;;;;3.00;1.42;;;19.60;58.60;;;;;;4942508;28;87359;-86
2023/04/05 02:43:34;;;;;;;2.22;1.40;;;19.60;58.60;;;;;;4942374;28;87360;-85
2023/04/05 02:46:00;;;;;;;2.03;1.33;;;19.60;58.60;;;;;;4941588;28;88388;-85
2023/04/05 02:48:25;;;;;;;2.67;1.50;;;19.50;58.40;;;;;;4944614;28;88280;-85
2023/04/05 02:50:51;;;;;;;1.67;1.30;;;19.50;58.40;;;;;;4930282;28;92396;-85
2023/04/05 02:53:17;;;;;;;2.20;1.67;;;19.50;58.40;;;;;;4930758;28;87227;-85
2023/04/05 02:55:50;;;;;;;1.50;1.13;;;19.50;58.50;;;;;;4932206;28;88871;-86
2023/04/05 02:58:16;;;;;;;2.15;1.35;;;19.60;58.30;;;;;;4951359;28;88349;-85
2023/04/05 03:00:49;;;;;;;1.65;1.33;;;19.60;58.40;;;;;;4952730;28;87043;-85
2023/04/05 03:03:19;;;;;;;1.75;1.45;;;19.60;58.40;;;;;;4950919;28;87647;-85
2023/04/05 03:05:46;;;;;;;3.45;1.65;;;19.50;58.30;;;;;;4950878;28;87871;-85
2023/04/05 03:08:18;;;;;;;1.38;1.27;;;19.50;58.30;;;;;;4952811;28;87039;-85
2023/04/05 03:10:46;;;;;;;2.22;1.65;;;19.50;58.20;;;;;;4950417;28;87991;-84
2023/04/05 03:13:13;;;;;;;2.67;1.80;;;19.50;58.20;;;;;;4949353;28;89181;-85
2023/04/05 03:15:40;;;;;;;2.10;1.20;;;19.50;58.20;;;;;;4954650;28;88284;-84
2023/04/05 03:18:05;;;;;;;2.00;1.60;;;19.50;58.20;;;;;;4953120;28;87878;-85
2023/04/05 03:20:35;;;;;;;2.28;1.60;;;19.50;58.10;;;;;;4949636;28;87002;-85
2023/04/05 03:23:00;;;;;;;1.90;1.30;;;19.50;58.00;;;;;;4963049;28;87241;-85
2023/04/05 03:25:26;;;;;;;2.88;1.50;;;19.40;58.10;;;;;;4965145;28;89383;-85
2023/04/05 03:27:52;;;;;;;2.10;1.58;;;19.40;58.10;;;;;;4978659;28;89798;-85
2023/04/05 03:30:18;;;;;;;2.72;1.50;;;19.40;58.30;;;;;;4978669;28;86782;-85
2023/04/05 03:32:43;;;;;;;1.20;1.00;;;19.40;58.20;;;;;;4963678;28;87444;-85
2023/04/05 03:35:09;;;;;;;2.05;1.50;;;19.40;58.20;;;;;;4963063;28;88381;-85
2023/04/05 03:37:43;;;;;;;2.13;1.52;;;19.40;58.20;;;;;;4979834;28;91509;-85
2023/04/05 03:40:09;;;;;;;1.88;1.50;;;19.30;58.10;;;;;;4963204;28;87061;-85
2023/04/05 03:42:35;;;;;;;1.88;1.30;;;19.40;58.20;;;;;;4963592;28;87500;-85
2023/04/05 03:45:00;;;;;;;2.45;1.50;;;19.30;58.10;;;;;;4953413;28;91648;-85
2023/04/05 03:47:26;;;;;;;1.58;1.35;;;19.30;57.90;;;;;;4968881;28;88710;-84
2023/04/05 03:50:01;;;;;;;1.95;1.48;;;19.40;58.00;;;;;;4983841;28;87402;-85
2023/04/05 03:52:27;;;;;;;1.98;1.50;;;19.30;58.00;;;;;;4984095;28;86535;-86
2023/04/05 03:54:52;;;;;;;1.98;1.63;;;19.40;57.90;;;;;;4983257;28;88604;-86
2023/04/05 03:57:18;;;;;;;2.08;1.50;;;19.30;57.90;;;;;;4969791;28;87984;-85
2023/04/05 03:59:43;;;;;;;1.58;1.30;;;19.30;58.00;;;;;;4962549;28;87893;-85
2023/04/05 04:02:09;;;;;;;1.52;1.20;;;19.30;58.10;;;;;;4960434;28;87507;-85
2023/04/05 04:04:35;;;;;;;2.17;1.55;;;19.30;58.00;;;;;;4944538;28;87624;-85
2023/04/05 04:07:00;;;;;;;1.92;1.40;;;19.30;57.90;;;;;;4960830;28;87450;-85
2023/04/05 04:09:28;;;;;;;1.92;1.40;;;19.30;58.00;;;;;;4963461;28;87592;-85
2023/04/05 04:11:55;;;;;;;2.97;1.40;;;19.30;58.00;;;;;;4952343;28;87227;-85
2023/04/05 04:14:22;;;;;;;1.55;1.23;;;19.30;58.10;;;;;;4961674;28;88769;-85
2023/04/05 04:16:57;;;;;;;1.58;1.30;;;19.30;58.00;;;;;;4938862;28;91521;-87
2023/04/05 04:19:23;;;;;;;1.90;1.70;;;19.30;57.80;;;;;;4964671;28;87181;-86
2023/04/05 04:21:51;;;;;;;2.70;1.60;;;19.30;58.00;;;;;;4977255;28;90098;-86
2023/04/05 04:24:18;;;;;;;2.65;1.80;;;19.30;58.70;;;;;;4966324;28;91554;-88
2023/04/05 04:26:45;;;;;;;2.15;1.58;;;19.30;58.60;;;;;;4965169;28;88704;-86
2023/04/05 04:29:11;;;;;;;2.28;1.52;;;19.40;59.30;;;;;;4977728;28;87065;-87
2023/04/05 04:31:38;;;;;;;3.40;2.00;;;19.50;58.70;;;;;;4963232;28;87347;-87
2023/04/05 04:34:04;;;;;;;2.83;1.65;;;19.70;58.30;;;;;;4963603;28;88406;-87
2023/04/05 04:36:38;;;;;;;1.85;1.35;;;19.80;58.30;;;;;;4955669;28;90366;-87
2023/04/05 04:39:04;;;;;;;2.17;1.27;;;19.90;58.40;;;;;;4962879;28;86949;-87
2023/04/05 04:41:32;;;;;;;3.35;1.52;;;20.00;58.20;;;;;;4963853;28;87159;-87
2023/04/05 04:44:01;;;;;;;1.95;1.75;;;20.00;58.00;;;;;;4963904;28;89210;-87
2023/04/05 04:46:41;;;;;;;3.33;1.65;;;20.00;57.90;;;;;;4961557;28;90177;-86
2023/04/05 04:49:08;;;;;;;1.83;1.42;;;20.00;57.80;;;;;;4962001;28;88245;-87
2023/04/05 04:51:36;;;;;;;1.65;1.48;;;20.00;58.00;;;;;;4963451;28;87123;-87
2023/04/05 04:54:01;;;;;;;1.70;1.17;;;19.90;58.00;;;;;;4963619;28;88454;-88
2023/04/05 04:56:27;;;;;;;1.27;1.13;;;19.90;58.00;;;;;;4964309;28;87210;-88
2023/04/05 05:02:15;;;;;;;2.63;1.65;;;19.80;58.40;;;;;;4971926;28;87427;-87
2023/04/05 05:04:42;;;;;;;2.13;1.45;;;19.80;58.50;;;;;;4953564;28;90967;-87
2023/04/05 05:07:09;;;;;;;2.28;1.52;;;19.70;58.40;;;;;;4973601;28;87597;-87
2023/04/05 05:09:35;;;;;;;3.25;1.23;;;19.70;58.60;;;;;;4971977;28;86983;-87
2023/04/05 05:12:00;;;;;;;3.08;1.38;;;19.70;58.50;;;;;;4971632;28;87430;-87
2023/04/05 05:14:26;;;;;;;1.58;1.30;;;19.80;58.40;;;;;;4936871;28;91153;-87
2023/04/05 05:16:53;;;;;;;1.88;1.42;;;19.70;58.40;;;;;;4928502;28;89862;-88
2023/04/05 05:19:19;;;;;;;1.80;1.33;;;19.60;58.40;;;;;;4953121;28;87234;-87
2023/04/05 05:21:46;;;;;;;1.80;1.27;;;19.60;58.40;;;;;;4971545;28;87198;-87
2023/04/05 05:24:13;;;;;;;4.40;1.50;;;19.70;57.40;;;;;;4952536;28;87480;-86
2023/04/05 05:26:39;;;;;;;3.97;1.92;;;19.70;58.10;;;;;;4951671;28;91501;-88
2023/04/05 05:29:04;;;;;;;3.63;1.55;;;19.80;57.90;;;;;;4958988;28;86973;-86
2023/04/05 05:31:31;;;;;;;7.13;1.88;;;19.90;57.80;;;;;;4953893;28;86471;-87
2023/04/05 05:33:57;;;;;;;5.60;1.98;;;19.90;57.80;;;;;;4951979;28;88046;-88
2023/04/05 05:36:24;;;;;;;9.00;2.65;;;20.10;57.80;;;;;;4949558;28;89221;-86
2023/04/05 05:38:59;;;;;;;10.02;2.80;;;20.20;57.50;;;;;;4966145;28;88345;-86
2023/04/05 05:41:24;;;;;;;10.07;3.15;;;20.30;57.20;;;;;;4954279;28;87336;-88
2023/04/05 05:43:50;;;;;;;8.10;2.33;;;20.40;57.10;;;;;;4952697;28;89973;-86
2023/04/05 05:46:18;;;;;;;10.23;3.10;;;20.50;56.80;;;;;;4951854;28;88329;-87
2023/04/05 05:48:43;;;;;;;7.88;2.72;;;20.60;56.80;;;;;;4952774;28;86933;-86
2023/04/05 05:51:09;;;;;;;13.70;3.28;;;20.60;56.70;;;;;;4952435;28;87423;-88
2023/04/05 05:53:36;;;;;;;21.67;4.55;;;20.70;56.40;;;;;;4950168;28;88360;-90
2023/04/05 05:56:02;;;;;;;11.10;4.18;;;20.70;56.60;;;;;;4954012;28;89992;-89
2023/04/05 05:58:28;;;;;;;13.07;3.47;;;20.70;56.70;;;;;;4964649;28;87264;-89
2023/04/05 06:00:57;;;;;;;11.50;3.75;;;20.70;57.00;;;;;;4981053;28;87877;-87
2023/04/05 06:03:24;;;;;;;;;;;20.70;55.60;;;;;;4973628;28;88844;-89
2023/04/05 06:06:01;;;;;;;24.15;4.68;;;20.70;52.30;;;;;;4962228;28;89724;-87
2023/04/05 06:08:30;;;;;;;16.67;4.68;;;20.70;53.10;;;;;;4980461;28;88086;-87
2023/04/05 06:11:03;;;;;;;16.27;4.65;;;20.70;54.20;;;;;;4959453;28;90640;-87
2023/04/05 06:13:29;;;;;;;15.88;5.20;;;20.70;55.00;;;;;;4993117;28;88603;-87
2023/04/05 06:15:55;;;;;;;18.45;5.03;;;20.70;55.90;;;;;;4958635;28;90865;-86
2023/04/05 06:18:20;;;;;;;12.95;5.00;;;20.80;55.50;;;;;;4958802;28;87432;-88
2023/04/05 06:20:46;;;;;;;15.07;5.25;;;20.80;55.40;;;;;;4977256;28;86375;-89
2023/04/05 06:26:34;;;;;;;20.70;5.28;;;20.80;57.30;;;;;;4978452;28;87031;-88
2023/04/05 06:29:00;;;;;;;19.73;5.57;;;20.90;58.00;;;;;;4978794;28;87771;-88
2023/04/05 06:31:29;;;;;;;20.92;5.50;;;20.90;58.20;;;;;;4971108;28;89076;-88
2023/04/05 06:33:55;;;;;;;16.85;5.03;;;20.90;57.00;;;;;;4979128;28;89430;-88
2023/04/05 06:36:21;;;;;;;15.25;5.25;;;20.90;56.10;;;;;;4949130;28;90144;-88
2023/04/05 06:38:46;;;;;;;20.70;6.15;;;20.90;57.00;;;;;;4966430;28;86934;-89
2023/04/05 06:41:12;;;;;;;20.10;5.00;;;20.90;57.60;;;;;;4964276;28;88103;-90
2023/04/05 06:43:38;;;;;;;16.17;5.60;;;21.00;57.80;;;;;;4939780;28;92234;-88
2023/04/05 06:46:07;;;;;;;14.82;5.20;;;21.00;57.60;;;;;;4969429;28;88611;-87
2023/04/05 06:48:33;;;;;;;14.68;4.90;;;21.10;57.70;;;;;;4958836;28;87373;-87
2023/04/05 06:51:00;;;;;;;16.90;5.47;;;21.10;57.80;;;;;;4956916;28;87384;-88
2023/04/05 06:56:47;;;;;;;15.57;5.07;;;21.10;58.10;;;;;;4951041;28;87467;-89
2023/04/05 06:59:13;;;;;;;14.95;5.45;;;21.10;58.20;;;;;;4957651;28;87357;-89
2023/04/05 07:01:39;;;;;;;10.75;4.80;;;21.20;58.10;;;;;;4959384;28;86939;-89
2023/04/05 07:04:05;;;;;;;15.52;5.63;;;21.20;58.00;;;;;;4958978;28;87748;-88
2023/04/05 07:06:33;;;;;;;14.85;4.43;;;21.30;58.20;;;;;;4957049;28;91299;-89
2023/04/05 07:08:59;;;;;;;15.10;5.13;;;21.40;58.40;;;;;;4959539;28;86832;-88
2023/04/05 07:11:33;;;;;;;18.20;5.80;;;21.40;58.30;;;;;;4959090;28;88566;-87
2023/04/05 07:13:59;;;;;;;13.93;5.22;;;21.40;58.20;;;;;;4950307;28;90894;-90
2023/04/05 07:16:25;;;;;;;13.05;5.38;;;21.40;57.60;;;;;;4959267;28;88171;-90
2023/04/05 07:18:51;;;;;;;16.17;5.25;;;21.40;57.10;;;;;;4959170;28;88413;-89
2023/04/05 07:21:16;;;;;;;20.45;4.97;;;21.50;58.00;;;;;;4952351;28;88887;-90
2023/04/05 07:27:13;;;;;;;15.07;4.97;;;21.50;58.20;;;;;;4961118;28;87077;-94
2023/04/05 07:29:42;;;;;;;14.57;5.53;;;21.30;58.50;;;;;;4964901;28;86904;-95
2023/04/05 07:32:08;;;;;;;13.00;5.40;;;21.30;58.60;;;;;;4960851;28;89125;-88
2023/04/05 07:34:34;;;;;;;16.02;5.45;;;21.30;58.90;;;;;;4972415;28;90716;-89
2023/04/05 07:37:00;;;;;;;16.55;5.20;;;21.20;58.90;;;;;;4965413;28;87868;-90
2023/04/05 07:39:26;;;;;;;15.43;4.57;;;21.20;59.20;;;;;;4995733;28;87285;-91
2023/04/05 07:41:52;;;;;;;17.60;4.88;;;21.20;59.40;;;;;;4989416;28;89033;-91
2023/04/05 07:44:17;;;;;;;17.55;5.25;;;21.20;59.80;;;;;;4962164;28;91390;-92
2023/04/05 07:46:43;;;;;;;17.08;5.15;;;21.30;58.00;;;;;;4965958;28;88287;-90
2023/04/05 07:49:10;;;;;;;15.90;4.57;;;21.40;59.20;;;;;;4965033;28;87316;-88
2023/04/05 07:51:37;;;;;;;15.88;4.35;;;21.50;59.10;;;;;;4963647;28;87969;-89
2023/04/05 07:54:04;;;;;;;18.13;5.72;;;21.60;56.90;;;;;;4963669;28;90425;-89
2023/04/05 07:56:30;;;;;;;14.45;5.45;;;21.60;57.90;;;;;;4981600;28;90799;-89
2023/04/05 07:58:59;;;;;;;14.45;5.50;;;21.50;58.00;;;;;;4945123;28;87758;-87
2023/04/05 08:01:30;;;;;;;18.55;5.18;;;21.40;57.80;;;;;;4934420;28;90694;-88
2023/04/05 08:03:58;;;;;;;12.18;4.55;;;21.40;57.90;;;;;;4944366;28;87807;-89
2023/04/05 08:06:25;;;;;;;13.90;4.97;;;21.30;57.90;;;;;;4940880;28;91357;-88
2023/04/05 08:08:51;;;;;;;15.35;4.90;;;21.30;57.70;;;;;;4944952;28;88062;-88
2023/04/05 08:11:17;;;;;;;12.68;4.93;;;21.30;57.90;;;;;;4944407;28;87297;-88
2023/04/05 08:13:43;;;;;;;13.13;4.30;;;21.30;58.00;;;;;;4942961;28;90094;-89
2023/04/05 08:16:10;;;;;;;16.58;5.07;;;21.30;58.10;;;;;;4943922;28;88311;-88
2023/04/05 08:18:36;;;;;;;11.82;4.00;;;21.20;58.10;;;;;;4944436;28;87232;-89
2023/04/05 08:21:02;;;;;;;14.30;4.80;;;21.20;58.20;;;;;;4934977;28;90457;-88
2023/04/05 08:23:28;;;;;;;14.02;4.70;;;21.20;58.20;;;;;;4944326;28;87369;-89
2023/04/05 08:25:54;;;;;;;10.35;4.18;;;21.20;58.20;;;;;;4945103;28;87367;-88
2023/04/05 08:28:20;;;;;;;14.98;4.55;;;21.20;58.40;;;;;;4959946;28;95278;-89
2023/04/05 08:30:46;;;;;;;19.00;5.13;;;21.20;58.50;;;;;;4964211;28;87543;-89
2023/04/05 08:33:12;;;;;;;17.40;4.63;;;21.20;58.30;;;;;;4961574;28;92865;-89
2023/04/05 08:35:38;;;;;;;13.73;5.28;;;21.20;58.40;;;;;;4961912;28;91181;-88
2023/04/05 08:38:23;;;;;;;12.27;4.13;;;21.20;58.50;;;;;;4963874;28;87145;-88
2023/04/05 08:40:49;;;;;;;9.73;3.92;;;21.20;58.50;;;;;;4963958;28;91764;-88
2023/04/05 08:43:21;;;;;;;13.32;4.03;;;21.20;58.30;;;;;;4962487;28;88668;-89
2023/04/05 08:45:52;;;;;;;17.83;4.50;;;21.20;58.30;;;;;;4954804;28;88982;-89
2023/04/05 08:48:19;;;;;;;13.07;4.00;;;21.20;58.50;;;;;;4954656;28;87350;-88
2023/04/05 08:50:52;;;;;;;10.95;3.83;;;21.20;58.50;;;;;;4962892;28;86848;-88
2023/04/05 08:53:18;;;;;;;10.00;4.10;;;21.20;58.20;;;;;;4962656;28;87521;-88
2023/04/05 08:55:50;;;;;;;11.60;3.88;;;21.30;57.90;;;;;;4962975;28;87395;-89
2023/04/05 08:58:17;;;;;;;13.57;4.15;;;21.20;58.10;;;;;;4980188;28;88213;-88
2023/04/05 09:00:46;;;;;;;11.82;4.05;;;21.30;57.30;;;;;;4981160;28;88284;-88
2023/04/05 09:03:17;;;;;;;13.50;3.83;;;21.30;57.60;;;;;;4963777;28;91698;-88
2023/04/05 09:05:49;;;;;;;9.35;3.80;;;21.20;57.90;;;;;;4979254;28;88021;-88
2023/04/05 09:08:15;;;;;;;9.57;3.92;;;21.20;58.10;;;;;;4981973;28;87097;-88
2023/04/05 09:10:41;;;;;;;10.40;4.35;;;21.20;58.40;;;;;;4965192;28;90398;-88
2023/04/05 09:13:10;;;;;;;11.00;3.92;;;21.20;58.40;;;;;;4963831;28;89702;-88
2023/04/05 09:15:37;;;;;;;8.50;4.15;;;21.10;58.40;;;;;;4982131;28;87311;-88
2023/04/05 09:18:03;;;;;;;7.35;3.65;;;21.20;58.60;;;;;;4979815;28;87053;-90
2023/04/05 09:20:29;;;;;;;9.75;3.97;;;21.20;58.50;;;;;;4982341;28;87378;-88
2023/04/05 09:22:56;;;;;;;10.77;3.50;;;21.20;58.20;;;;;;4956192;28;90745;-88
2023/04/05 09:25:31;;;;;;;8.75;3.70;;;21.20;58.20;;;;;;4971778;28;89141;-88
2023/04/05 09:27:57;;;;;;;9.20;3.60;;;21.20;58.60;;;;;;4983348;28;87553;-88
2023/04/05 09:30:25;;;;;;;8.07;3.45;;;21.20;58.50;;;;;;4963487;28;90042;-89
2023/04/05 09:32:51;;;;;;;5.82;3.47;;;21.20;58.60;;;;;;4982614;28;87512;-89
2023/04/05 09:35:24;;;;;;;6.50;3.67;;;21.20;58.70;;;;;;4971542;28;87373;-88
2023/04/05 09:37:54;;;;;;;6.85;3.40;;;21.20;58.60;;;;;;4964794;28;86991;-89
2023/04/05 09:40:21;;;;;;;9.55;3.63;;;21.20;58.80;;;;;;4964193;28;89509;-88
2023/04/05 09:42:47;;;;;;;7.80;4.07;;;21.20;59.00;;;;;;4981404;28;89008;-86
2023/04/05 09:45:17;;;;;;;9.75;3.80;;;21.20;58.90;;;;;;4982309;28;87953;-88
2023/04/05 09:47:56;;;;;;;8.10;3.72;;;21.20;58.90;;;;;;4981845;28;88568;-87
2023/04/05 09:50:22;;;;;;;13.32;3.90;;;21.20;58.90;;;;;;4981829;28;87862;-88
2023/04/05 09:52:48;;;;;;;8.30;4.47;;;21.10;59.00;;;;;;4983136;28;88373;-90
2023/04/05 09:55:24;;;;;;;7.32;3.15;;;21.20;58.90;;;;;;4963821;28;90123;-89
2023/04/05 09:57:49;;;;;;;9.20;3.80;;;21.10;58.90;;;;;;4949511;28;87117;-88
2023/04/05 10:00:20;;;;;;;9.05;3.90;;;21.10;58.90;;;;;;4960245;28;87174;-89
2023/04/05 10:02:50;;;;;;;8.52;3.53;;;21.10;59.10;;;;;;4944734;28;89372;-89
2023/04/05 10:05:16;;;;;;;9.18;3.40;;;21.10;59.10;;;;;;4952899;28;91701;-88
2023/04/05 10:07:42;;;;;;;7.07;3.50;;;21.10;59.30;;;;;;4909139;28;87937;-89
2023/04/05 10:10:11;;;;;;;7.57;3.97;;;21.10;59.40;;;;;;4909773;28;87700;-88
2023/04/05 10:12:40;;;;;;;8.10;3.45;;;21.10;59.40;;;;;;4902614;28;88671;-90
2023/04/05 10:15:10;;;;;;;7.55;3.72;;;21.10;59.50;;;;;;4901936;28;87942;-89
2023/04/05 10:17:59;;;;;;;6.13;3.50;;;21.10;59.60;;;;;;4901980;28;87342;-87
2023/04/05 10:20:27;;;;;;;6.67;3.40;;;21.10;59.50;;;;;;4884999;28;95358;-91
2023/04/05 10:22:58;;;;;;;9.93;4.22;;;21.10;59.60;;;;;;4901962;28;88043;-88
2023/04/05 10:25:51;;;;;;;6.90;3.50;;;21.10;59.50;;;;;;4900875;28;87372;-89
2023/04/05 10:28:41;;;;;;;8.77;3.75;;;21.00;59.40;;;;;;4901343;28;87692;-89
2023/04/05 10:31:32;;;;;;;7.18;3.17;;;21.10;59.40;;;;;;4901275;28;90505;-89
2023/04/05 10:34:05;;;;;;;9.05;3.60;;;21.00;59.40;;;;;;4885179;28;90628;-89
2023/04/05 10:36:58;;;;;;;5.57;2.97;;;21.10;59.40;;;;;;4901090;28;88658;-88
2023/04/05 10:39:34;;;;;;;6.45;3.17;;;21.00;59.20;;;;;;4935643;28;88316;-88
2023/04/05 10:42:01;;;;;;;5.00;3.47;;;21.00;59.90;;;;;;4952167;28;87443;-89
2023/04/05 10:48:06;;;;;;;4.45;2.60;;;20.90;58.80;;;;;;4980672;28;87394;-88
2023/04/05 10:50:33;;;;;;;15.02;4.65;;;20.80;59.20;;;;;;4971843;28;87645;-88
2023/04/05 10:53:00;;;;;;;12.57;4.25;;;20.80;59.00;;;;;;4964388;28;89770;-89
2023/04/05 10:55:26;;;;;;;9.77;4.13;;;20.70;58.30;;;;;;4961139;28;91394;-89
2023/04/05 10:57:53;;;;;;;9.05;3.92;;;20.80;53.20;;;;;;4973877;28;90407;-88
2023/04/05 11:00:21;;;;;;;9.38;4.22;;;21.00;50.90;;;;;;4975441;28;87258;-88
2023/04/05 11:02:48;;;;;;;14.55;4.55;;;21.10;50.30;;;;;;4975287;28;88790;-88
2023/04/05 11:05:29;;;;;;;9.40;4.32;;;21.10;49.80;;;;;;4959288;28;91229;-89
2023/04/05 11:08:00;;;;;;;13.18;4.05;;;21.20;49.00;;;;;;4965148;28;89160;-89
2023/04/05 11:10:27;;;;;;;9.20;3.85;;;21.20;48.80;;;;;;4965164;28;87239;-88
2023/04/05 11:12:55;;;;;;;9.93;4.20;;;21.20;48.00;;;;;;4955043;28;88128;-88
2023/04/05 11:15:32;;;;;;;11.88;3.97;;;21.20;50.60;;;;;;4979263;28;91626;-88
2023/04/05 11:18:09;;;;;;;10.25;3.70;;;21.00;51.80;;;;;;4956588;28;88432;-88
2023/04/05 11:20:47;;;;;;;8.95;3.67;;;20.90;52.20;;;;;;4965688;28;87380;-88
2023/04/05 11:23:15;;;;;;;12.13;4.18;;;20.80;52.70;;;;;;4964159;28;90001;-88
2023/04/05 11:25:49;;;;;;;9.85;4.53;;;20.70;53.00;;;;;;4965050;28;87261;-87
2023/04/05 11:28:52;;;;;;;9.15;4.00;;;20.70;53.50;;;;;;4965379;28;88133;-89
2023/04/05 11:31:24;;;;;;;8.75;3.80;;;20.70;53.80;;;;;;4963917;28;87824;-88
2023/04/05 11:33:54;;;;;;;11.30;4.18;;;20.60;53.90;;;;;;4963520;28;90447;-88
2023/04/05 11:36:42;;;;;;;9.20;3.92;;;20.60;54.20;;;;;;4964887;28;88970;-87
2023/04/05 11:39:30;;;;;;;11.90;3.95;;;20.60;54.40;;;;;;4964881;28;88098;-88
2023/04/05 11:42:03;;;;;;;8.85;3.35;;;20.60;54.60;;;;;;4978055;28;86848;-87
2023/04/05 11:44:46;;;;;;;9.35;3.63;;;20.70;54.50;;;;;;4964120;28;87644;-88
2023/04/05 11:47:15;;;;;;;9.30;3.40;;;20.70;54.70;;;;;;4963103;28;90391;-87
2023/04/05 11:49:41;;;;;;;11.07;3.75;;;20.60;54.60;;;;;;4965940;28;88569;-88
2023/04/05 11:52:18;;;;;;;8.18;3.95;;;20.60;54.80;;;;;;4963221;28;87043;-89
2023/04/05 11:54:45;;;;;;;7.60;3.80;;;20.50;54.90;;;;;;4964951;28;87289;-88
2023/04/05 11:57:22;;;;;;;9.18;3.70;;;20.50;55.00;;;;;;4974311;28;89580;-88
2023/04/05 11:59:53;;;;;;;9.88;3.47;;;20.50;55.30;;;;;;4983352;28;88284;-89
2023/04/05 12:02:20;;;;;;;8.15;3.47;;;20.50;55.40;;;;;;4940966;28;87550;-88
2023/04/05 12:04:56;;;;;;;8.93;3.70;;;20.50;55.20;;;;;;4943140;28;87030;-88
2023/04/05 12:07:26;;;;;;;8.50;3.20;;;20.50;55.50;;;;;;4926043;28;90428;-88
2023/04/05 12:10:12;;;;;;;6.80;3.40;;;20.50;55.50;;;;;;4924882;28;90328;-89
2023/04/05 12:12:40;;;;;;;9.55;3.38;;;20.50;55.50;;;;;;4942165;28;87572;-88
2023/04/05 12:15:09;;;;;;;9.18;3.88;;;20.40;55.60;;;;;;4934751;28;86762;-88
2023/04/05 12:17:42;;;;;;;8.60;3.33;;;20.50;56.00;;;;;;4942331;28;87982;-87
2023/04/05 12:20:09;;;;;;;8.70;3.78;;;20.40;55.60;;;;;;4941591;28;88539;-89
2023/04/05 12:22:36;;;;;;;6.72;3.22;;;20.40;55.80;;;;;;4942427;28;88392;-88
2023/04/05 12:25:03;;;;;;;7.00;3.15;;;20.50;56.10;;;;;;4941843;28;87210;-88
2023/04/05 12:27:29;;;;;;;9.23;3.72;;;20.40;56.00;;;;;;4950975;28;92220;-89
2023/04/05 12:30:05;;;;;;;10.23;3.22;;;20.40;56.10;;;;;;4980000;28;86957;-88
2023/04/05 12:32:49;;;;;;;8.65;3.10;;;20.40;56.00;;;;;;4980082;28;86897;-93
2023/04/05 12:35:19;;;;;;;8.15;3.10;;;20.50;56.10;;;;;;4975859;28;87617;-90
2023/04/05 12:37:45;;;;;;;10.20;3.35;;;20.70;55.00;;;;;;4979646;28;88433;-92
2023/04/05 12:40:19;;;;;;;9.50;3.25;;;20.80;54.60;;;;;;4979462;28;88390;-94
2023/04/05 12:42:45;;;;;;;13.05;4.25;;;20.80;54.60;;;;;;4978512;28;88770;-91
2023/04/05 12:45:11;;;;;;;15.60;3.35;;;20.90;54.80;;;;;;4978499;28;87013;-94
2023/04/05 12:47:51;;;;;;;9.13;3.25;;;21.00;54.50;;;;;;4956371;28;90341;-92
2023/04/05 12:50:24;;;;;;;12.70;3.35;;;21.10;54.70;;;;;;4981942;28;89251;-93
2023/04/05 12:53:22;;;;;;;11.02;3.42;;;21.20;53.80;;;;;;4962960;28;87393;-91
2023/04/05 12:55:54;;;;;;;12.73;3.80;;;21.30;54.80;;;;;;4902365;28;92102;-93
2023/04/05 12:58:22;;;;;;;13.50;3.80;;;21.40;55.10;;;;;;4904341;28;90983;-93
2023/04/05 13:00:57;;;;;;;18.58;4.18;;;21.40;55.30;;;;;;4928141;28;87045;-92
2023/04/05 13:03:26;;;;;;;14.60;3.58;;;21.30;55.60;;;;;;4917821;28;87135;-94
2023/04/05 13:05:52;;;;;;;7.83;3.30;;;21.30;55.80;;;;;;4924883;28;86475;-93
2023/04/05 13:08:18;;;;;;;7.78;3.25;;;21.30;56.00;;;;;;4927429;28;87464;-93
2023/04/05 13:17:26;;;;;;;11.95;3.60;;;21.40;56.90;;;;;;4937002;28;86825;-93
2023/04/05 13:19:52;;;;;;;10.38;3.97;;;21.50;57.30;;;;;;4931256;28;90324;-93
2023/04/05 13:22:17;;;;;;;10.65;3.45;;;21.50;57.20;;;;;;4947137;28;90603;-93